sensor_id;sensor_type;location;lat;lon;timestamp;temperature;humidity
17599;DHT22;8918;52.092;5.232;2022-12-29T00:01:37;11.20;99.90
17599;DHT22;8918;52.092;5.232;2022-12-29T00:04:04;11.20;99.90
17599;DHT22;8918;52.092;5.232;2022-12-29T00:06:30;11.30;99.90
17599;DHT22;8918;52.092;5.232;2022-12-29T00:08:56;11.30;99.90
17599;DHT22;8918;52.092;5.232;2022-12-29T00:11:24;11.30;99.90
17599;DHT22;8918;52.092;5.232;2022-12-29T00:13:50;11.30;99.90
17599;DHT22;8918;52.092;5.232;2022-12-29T00:16:35;11.30;99.90
17599;DHT22;8918;52.092;5.232;2022-12-29T00:19:01;11.40;99.90
17599;DHT22;8918;52.092;5.232;2022-12-29T00:21:27;11.40;99.90
17599;DHT22;8918;52.092;5.232;2022-12-29T00:24:17;11.40;99.90
17599;DHT22;8918;52.092;5.232;2022-12-29T00:27:11;11.40;99.90
17599;DHT22;8918;52.092;5.232;2022-12-29T00:29:56;11.40;99.90
17599;DHT22;8918;52.092;5.232;2022-12-29T00:32:41;11.40;99.90
17599;DHT22;8918;52.092;5.232;2022-12-29T00:35:36;11.40;99.90
17599;DHT22;8918;52.092;5.232;2022-12-29T00:38:05;11.50;99.90
17599;DHT22;8918;52.092;5.232;2022-12-29T00:40:51;11.40;99.90
17599;DHT22;8918;52.092;5.232;2022-12-29T00:43:35;11.40;99.90
17599;DHT22;8918;52.092;5.232;2022-12-29T00:46:19;11.40;99.90
17599;DHT22;8918;52.092;5.232;2022-12-29T00:48:45;11.40;99.90
17599;DHT22;8918;52.092;5.232;2022-12-29T00:51:29;11.40;99.90
17599;DHT22;8918;52.092;5.232;2022-12-29T00:53:55;11.50;99.90
17599;DHT22;8918;52.092;5.232;2022-12-29T00:56:21;11.50;99.90
17599;DHT22;8918;52.092;5.232;2022-12-29T00:58:46;11.50;99.90
17599;DHT22;8918;52.092;5.232;2022-12-29T01:01:12;11.50;99.90
17599;DHT22;8918;52.092;5.232;2022-12-29T01:03:37;11.50;99.90
17599;DHT22;8918;52.092;5.232;2022-12-29T01:06:06;11.40;99.90
17599;DHT22;8918;52.092;5.232;2022-12-29T01:08:32;11.40;99.90
17599;DHT22;8918;52.092;5.232;2022-12-29T01:11:02;11.40;99.90
17599;DHT22;8918;52.092;5.232;2022-12-29T01:13:28;11.40;99.90
17599;DHT22;8918;52.092;5.232;2022-12-29T01:15:54;11.40;99.90
17599;DHT22;8918;52.092;5.232;2022-12-29T01:18:20;11.30;99.90
17599;DHT22;8918;52.092;5.232;2022-12-29T01:20:46;11.20;99.90
17599;DHT22;8918;52.092;5.232;2022-12-29T01:23:12;11.20;99.90
17599;DHT22;8918;52.092;5.232;2022-12-29T01:25:37;11.10;99.90
17599;DHT22;8918;52.092;5.232;2022-12-29T01:28:03;11.00;99.90
17599;DHT22;8918;52.092;5.232;2022-12-29T01:30:28;10.90;99.90
17599;DHT22;8918;52.092;5.232;2022-12-29T01:32:54;10.80;99.90
17599;DHT22;8918;52.092;5.232;2022-12-29T01:35:19;10.80;99.90
17599;DHT22;8918;52.092;5.232;2022-12-29T01:37:45;10.70;99.90
17599;DHT22;8918;52.092;5.232;2022-12-29T01:40:11;10.70;99.90
17599;DHT22;8918;52.092;5.232;2022-12-29T01:42:37;10.70;99.90
17599;DHT22;8918;52.092;5.232;2022-12-29T01:45:10;10.70;99.90
17599;DHT22;8918;52.092;5.232;2022-12-29T01:47:57;10.60;99.90
17599;DHT22;8918;52.092;5.232;2022-12-29T01:50:33;10.60;99.90
17599;DHT22;8918;52.092;5.232;2022-12-29T01:53:16;10.60;99.90
17599;DHT22;8918;52.092;5.232;2022-12-29T01:55:54;10.60;99.90
17599;DHT22;8918;52.092;5.232;2022-12-29T01:58:23;10.60;99.90
17599;DHT22;8918;52.092;5.232;2022-12-29T02:00:50;10.60;99.90
17599;DHT22;8918;52.092;5.232;2022-12-29T02:03:18;10.60;99.90
17599;DHT22;8918;52.092;5.232;2022-12-29T02:05:50;10.60;99.90
17599;DHT22;8918;52.092;5.232;2022-12-29T02:08:20;10.70;99.90
17599;DHT22;8918;52.092;5.232;2022-12-29T02:10:47;10.70;99.90
17599;DHT22;8918;52.092;5.232;2022-12-29T02:13:16;10.80;99.90
17599;DHT22;8918;52.092;5.232;2022-12-29T02:30:26;10.90;99.90
17599;DHT22;8918;52.092;5.232;2022-12-29T02:35:44;10.90;99.90
17599;DHT22;8918;52.092;5.232;2022-12-29T02:38:47;10.90;99.90
17599;DHT22;8918;52.092;5.232;2022-12-29T02:51:19;11.10;99.90
17599;DHT22;8918;52.092;5.232;2022-12-29T02:53:46;11.10;99.90
17599;DHT22;8918;52.092;5.232;2022-12-29T02:56:30;11.10;99.90
17599;DHT22;8918;52.092;5.232;2022-12-29T02:58:56;11.10;99.90
17599;DHT22;8918;52.092;5.232;2022-12-29T03:01:49;11.10;99.90
17599;DHT22;8918;52.092;5.232;2022-12-29T03:04:58;11.10;99.90
17599;DHT22;8918;52.092;5.232;2022-12-29T03:07:44;11.10;99.90
17599;DHT22;8918;52.092;5.232;2022-12-29T03:15:50;11.00;99.90
17599;DHT22;8918;52.092;5.232;2022-12-29T03:21:30;11.00;99.90
17599;DHT22;8918;52.092;5.232;2022-12-29T03:24:17;10.90;99.90
17599;DHT22;8918;52.092;5.232;2022-12-29T03:26:45;10.90;99.90
17599;DHT22;8918;52.092;5.232;2022-12-29T03:29:13;10.90;99.90
17599;DHT22;8918;52.092;5.232;2022-12-29T03:31:41;10.90;99.90
17599;DHT22;8918;52.092;5.232;2022-12-29T03:34:08;10.80;99.90
17599;DHT22;8918;52.092;5.232;2022-12-29T03:36:49;10.80;99.90
17599;DHT22;8918;52.092;5.232;2022-12-29T03:39:18;10.80;99.90
17599;DHT22;8918;52.092;5.232;2022-12-29T03:41:46;10.80;99.90
17599;DHT22;8918;52.092;5.232;2022-12-29T03:44:14;10.80;99.90
17599;DHT22;8918;52.092;5.232;2022-12-29T03:46:39;10.80;99.90
17599;DHT22;8918;52.092;5.232;2022-12-29T03:49:05;10.70;99.90
17599;DHT22;8918;52.092;5.232;2022-12-29T03:51:30;10.70;99.90
17599;DHT22;8918;52.092;5.232;2022-12-29T03:53:56;10.70;99.90
17599;DHT22;8918;52.092;5.232;2022-12-29T03:56:21;10.60;99.90
17599;DHT22;8918;52.092;5.232;2022-12-29T03:58:47;10.60;99.90
17599;DHT22;8918;52.092;5.232;2022-12-29T04:01:12;10.50;99.90
17599;DHT22;8918;52.092;5.232;2022-12-29T04:03:38;10.50;99.90
17599;DHT22;8918;52.092;5.232;2022-12-29T04:06:04;10.40;99.90
17599;DHT22;8918;52.092;5.232;2022-12-29T04:08:29;10.40;99.90
17599;DHT22;8918;52.092;5.232;2022-12-29T04:10:55;10.40;99.90
17599;DHT22;8918;52.092;5.232;2022-12-29T04:13:20;10.40;99.90
17599;DHT22;8918;52.092;5.232;2022-12-29T04:15:46;10.40;99.90
17599;DHT22;8918;52.092;5.232;2022-12-29T04:18:13;10.40;99.90
17599;DHT22;8918;52.092;5.232;2022-12-29T04:20:38;10.40;99.90
17599;DHT22;8918;52.092;5.232;2022-12-29T04:23:22;10.40;99.90
17599;DHT22;8918;52.092;5.232;2022-12-29T04:25:48;10.40;99.90
17599;DHT22;8918;52.092;5.232;2022-12-29T04:28:15;10.50;99.90
17599;DHT22;8918;52.092;5.232;2022-12-29T04:30:41;10.50;99.90
17599;DHT22;8918;52.092;5.232;2022-12-29T04:33:07;10.60;99.90
17599;DHT22;8918;52.092;5.232;2022-12-29T04:35:33;10.60;99.90
17599;DHT22;8918;52.092;5.232;2022-12-29T04:37:58;10.60;99.90
17599;DHT22;8918;52.092;5.232;2022-12-29T04:40:24;10.60;99.90
17599;DHT22;8918;52.092;5.232;2022-12-29T04:42:50;10.70;99.90
17599;DHT22;8918;52.092;5.232;2022-12-29T04:45:16;10.70;99.90
17599;DHT22;8918;52.092;5.232;2022-12-29T04:47:41;10.70;99.90
17599;DHT22;8918;52.092;5.232;2022-12-29T04:50:07;10.70;99.90
17599;DHT22;8918;52.092;5.232;2022-12-29T04:52:33;10.70;99.90
17599;DHT22;8918;52.092;5.232;2022-12-29T04:54:58;10.70;99.90
17599;DHT22;8918;52.092;5.232;2022-12-29T04:57:24;10.60;99.90
17599;DHT22;8918;52.092;5.232;2022-12-29T04:59:50;10.60;99.90
17599;DHT22;8918;52.092;5.232;2022-12-29T05:02:16;10.60;99.90
17599;DHT22;8918;52.092;5.232;2022-12-29T05:04:42;10.60;99.90
17599;DHT22;8918;52.092;5.232;2022-12-29T05:07:07;10.50;99.90
17599;DHT22;8918;52.092;5.232;2022-12-29T05:09:33;10.50;99.90
17599;DHT22;8918;52.092;5.232;2022-12-29T05:11:58;10.50;99.90
17599;DHT22;8918;52.092;5.232;2022-12-29T05:14:24;10.40;99.90
17599;DHT22;8918;52.092;5.232;2022-12-29T05:16:50;10.40;99.90
17599;DHT22;8918;52.092;5.232;2022-12-29T05:19:15;10.40;99.90
17599;DHT22;8918;52.092;5.232;2022-12-29T05:21:42;10.40;99.90
17599;DHT22;8918;52.092;5.232;2022-12-29T05:24:08;10.40;99.90
17599;DHT22;8918;52.092;5.232;2022-12-29T05:26:33;10.50;99.90
17599;DHT22;8918;52.092;5.232;2022-12-29T05:28:59;10.40;99.90
17599;DHT22;8918;52.092;5.232;2022-12-29T05:31:25;10.50;99.90
17599;DHT22;8918;52.092;5.232;2022-12-29T05:33:51;10.40;99.90
17599;DHT22;8918;52.092;5.232;2022-12-29T05:36:17;10.50;99.90
17599;DHT22;8918;52.092;5.232;2022-12-29T05:38:43;10.50;99.90
17599;DHT22;8918;52.092;5.232;2022-12-29T05:41:09;10.50;99.90
17599;DHT22;8918;52.092;5.232;2022-12-29T05:43:34;10.50;99.90
17599;DHT22;8918;52.092;5.232;2022-12-29T05:46:00;10.50;99.90
17599;DHT22;8918;52.092;5.232;2022-12-29T05:48:26;10.50;99.90
17599;DHT22;8918;52.092;5.232;2022-12-29T05:50:52;10.50;99.90
17599;DHT22;8918;52.092;5.232;2022-12-29T05:53:17;10.40;99.90
17599;DHT22;8918;52.092;5.232;2022-12-29T05:55:44;10.50;99.90
17599;DHT22;8918;52.092;5.232;2022-12-29T05:58:11;10.40;99.90
17599;DHT22;8918;52.092;5.232;2022-12-29T06:00:36;10.40;99.90
17599;DHT22;8918;52.092;5.232;2022-12-29T06:03:02;10.50;99.90
17599;DHT22;8918;52.092;5.232;2022-12-29T06:05:28;10.40;99.90
17599;DHT22;8918;52.092;5.232;2022-12-29T06:07:53;10.40;99.90
17599;DHT22;8918;52.092;5.232;2022-12-29T06:10:19;10.30;99.90
17599;DHT22;8918;52.092;5.232;2022-12-29T06:12:44;10.20;99.90
17599;DHT22;8918;52.092;5.232;2022-12-29T06:15:10;10.10;99.90
17599;DHT22;8918;52.092;5.232;2022-12-29T06:17:36;10.10;99.90
17599;DHT22;8918;52.092;5.232;2022-12-29T06:20:02;10.10;99.90
17599;DHT22;8918;52.092;5.232;2022-12-29T06:22:28;10.10;99.90
17599;DHT22;8918;52.092;5.232;2022-12-29T06:24:53;10.10;99.90
17599;DHT22;8918;52.092;5.232;2022-12-29T06:27:19;10.10;99.90
17599;DHT22;8918;52.092;5.232;2022-12-29T06:29:44;10.00;99.90
17599;DHT22;8918;52.092;5.232;2022-12-29T06:32:10;10.00;99.90
17599;DHT22;8918;52.092;5.232;2022-12-29T06:34:36;9.90;99.90
17599;DHT22;8918;52.092;5.232;2022-12-29T06:37:02;9.80;99.90
17599;DHT22;8918;52.092;5.232;2022-12-29T06:39:27;9.80;99.90
17599;DHT22;8918;52.092;5.232;2022-12-29T06:41:53;9.90;99.90
17599;DHT22;8918;52.092;5.232;2022-12-29T06:44:22;9.90;99.90
17599;DHT22;8918;52.092;5.232;2022-12-29T06:46:49;9.90;99.90
17599;DHT22;8918;52.092;5.232;2022-12-29T06:49:14;9.90;99.90
17599;DHT22;8918;52.092;5.232;2022-12-29T06:51:40;10.00;99.90
17599;DHT22;8918;52.092;5.232;2022-12-29T06:54:05;10.00;99.90
17599;DHT22;8918;52.092;5.232;2022-12-29T06:56:31;10.00;99.90
17599;DHT22;8918;52.092;5.232;2022-12-29T06:58:57;10.10;99.90
17599;DHT22;8918;52.092;5.232;2022-12-29T07:01:25;10.10;99.90
17599;DHT22;8918;52.092;5.232;2022-12-29T07:03:50;10.10;99.90
17599;DHT22;8918;52.092;5.232;2022-12-29T07:06:16;10.10;99.90
17599;DHT22;8918;52.092;5.232;2022-12-29T07:08:42;9.90;99.90
17599;DHT22;8918;52.092;5.232;2022-12-29T07:11:07;9.60;99.90
17599;DHT22;8918;52.092;5.232;2022-12-29T07:13:34;9.50;99.90
17599;DHT22;8918;52.092;5.232;2022-12-29T07:16:07;9.40;99.90
17599;DHT22;8918;52.092;5.232;2022-12-29T07:18:32;9.30;99.90
17599;DHT22;8918;52.092;5.232;2022-12-29T07:20:59;9.30;99.90
17599;DHT22;8918;52.092;5.232;2022-12-29T07:23:25;9.30;99.90
17599;DHT22;8918;52.092;5.232;2022-12-29T07:25:59;9.20;99.90
17599;DHT22;8918;52.092;5.232;2022-12-29T07:28:25;9.20;99.90
17599;DHT22;8918;52.092;5.232;2022-12-29T07:30:50;9.20;99.90
17599;DHT22;8918;52.092;5.232;2022-12-29T07:33:16;9.20;99.90
17599;DHT22;8918;52.092;5.232;2022-12-29T07:35:41;9.10;99.90
17599;DHT22;8918;52.092;5.232;2022-12-29T07:38:07;9.20;99.90
17599;DHT22;8918;52.092;5.232;2022-12-29T07:40:32;9.30;99.90
17599;DHT22;8918;52.092;5.232;2022-12-29T07:42:58;9.30;99.90
17599;DHT22;8918;52.092;5.232;2022-12-29T07:45:23;9.30;99.90
17599;DHT22;8918;52.092;5.232;2022-12-29T07:47:49;9.40;99.90
17599;DHT22;8918;52.092;5.232;2022-12-29T07:50:15;9.50;99.90
17599;DHT22;8918;52.092;5.232;2022-12-29T07:52:41;9.50;99.90
17599;DHT22;8918;52.092;5.232;2022-12-29T07:55:06;9.60;99.90
17599;DHT22;8918;52.092;5.232;2022-12-29T07:57:32;9.60;99.90
17599;DHT22;8918;52.092;5.232;2022-12-29T07:59:58;9.60;99.90
17599;DHT22;8918;52.092;5.232;2022-12-29T08:02:24;9.60;99.90
17599;DHT22;8918;52.092;5.232;2022-12-29T08:04:51;9.70;99.90
17599;DHT22;8918;52.092;5.232;2022-12-29T08:07:17;9.70;99.90
17599;DHT22;8918;52.092;5.232;2022-12-29T08:09:42;9.80;99.90
17599;DHT22;8918;52.092;5.232;2022-12-29T08:12:11;9.80;99.90
17599;DHT22;8918;52.092;5.232;2022-12-29T08:14:37;9.80;99.90
17599;DHT22;8918;52.092;5.232;2022-12-29T08:17:02;9.90;99.90
17599;DHT22;8918;52.092;5.232;2022-12-29T08:19:28;9.90;99.90
17599;DHT22;8918;52.092;5.232;2022-12-29T08:21:53;9.90;99.90
17599;DHT22;8918;52.092;5.232;2022-12-29T08:24:19;10.00;99.90
17599;DHT22;8918;52.092;5.232;2022-12-29T08:26:45;10.00;99.90
17599;DHT22;8918;52.092;5.232;2022-12-29T08:29:10;10.00;99.90
17599;DHT22;8918;52.092;5.232;2022-12-29T08:31:36;10.00;99.90
17599;DHT22;8918;52.092;5.232;2022-12-29T08:34:02;10.00;99.90
17599;DHT22;8918;52.092;5.232;2022-12-29T08:36:29;10.10;99.90
17599;DHT22;8918;52.092;5.232;2022-12-29T08:38:55;10.10;99.90
17599;DHT22;8918;52.092;5.232;2022-12-29T08:41:21;10.00;99.90
17599;DHT22;8918;52.092;5.232;2022-12-29T08:43:47;10.00;99.90
17599;DHT22;8918;52.092;5.232;2022-12-29T08:46:13;10.00;99.90
17599;DHT22;8918;52.092;5.232;2022-12-29T08:48:39;10.10;99.90
17599;DHT22;8918;52.092;5.232;2022-12-29T08:51:05;10.00;99.90
17599;DHT22;8918;52.092;5.232;2022-12-29T08:53:31;10.10;99.90
17599;DHT22;8918;52.092;5.232;2022-12-29T08:55:58;10.00;99.90
17599;DHT22;8918;52.092;5.232;2022-12-29T08:58:25;10.00;99.90
17599;DHT22;8918;52.092;5.232;2022-12-29T09:00:53;10.00;99.90
17599;DHT22;8918;52.092;5.232;2022-12-29T09:03:19;10.10;99.90
17599;DHT22;8918;52.092;5.232;2022-12-29T09:05:51;10.00;99.90
17599;DHT22;8918;52.092;5.232;2022-12-29T09:08:17;10.00;99.90
17599;DHT22;8918;52.092;5.232;2022-12-29T09:10:44;10.00;99.90
17599;DHT22;8918;52.092;5.232;2022-12-29T09:13:11;10.10;99.90
17599;DHT22;8918;52.092;5.232;2022-12-29T09:15:37;10.00;99.90
17599;DHT22;8918;52.092;5.232;2022-12-29T09:18:03;10.00;99.90
17599;DHT22;8918;52.092;5.232;2022-12-29T09:20:29;9.90;99.90
17599;DHT22;8918;52.092;5.232;2022-12-29T09:22:54;9.90;99.90
17599;DHT22;8918;52.092;5.232;2022-12-29T09:25:20;9.80;99.90
17599;DHT22;8918;52.092;5.232;2022-12-29T09:27:47;9.70;99.90
17599;DHT22;8918;52.092;5.232;2022-12-29T09:30:13;9.70;99.90
17599;DHT22;8918;52.092;5.232;2022-12-29T09:32:40;9.60;99.90
17599;DHT22;8918;52.092;5.232;2022-12-29T09:35:06;9.50;99.90
17599;DHT22;8918;52.092;5.232;2022-12-29T09:37:31;9.40;99.90
17599;DHT22;8918;52.092;5.232;2022-12-29T09:39:57;9.40;99.90
17599;DHT22;8918;52.092;5.232;2022-12-29T09:42:27;9.30;99.90
17599;DHT22;8918;52.092;5.232;2022-12-29T09:47:43;9.20;99.90
17599;DHT22;8918;52.092;5.232;2022-12-29T09:50:22;9.10;99.90
17599;DHT22;8918;52.092;5.232;2022-12-29T09:52:55;9.10;99.90
17599;DHT22;8918;52.092;5.232;2022-12-29T09:55:30;9.10;99.90
17599;DHT22;8918;52.092;5.232;2022-12-29T09:58:00;9.10;99.90
17599;DHT22;8918;52.092;5.232;2022-12-29T10:00:40;9.10;99.90
17599;DHT22;8918;52.092;5.232;2022-12-29T10:03:19;9.10;99.90
17599;DHT22;8918;52.092;5.232;2022-12-29T10:06:07;9.20;99.90
17599;DHT22;8918;52.092;5.232;2022-12-29T10:08:42;9.20;99.90
17599;DHT22;8918;52.092;5.232;2022-12-29T10:16:46;9.20;99.90
17599;DHT22;8918;52.092;5.232;2022-12-29T10:25:12;9.40;99.90
17599;DHT22;8918;52.092;5.232;2022-12-29T10:27:40;9.40;99.90
17599;DHT22;8918;52.092;5.232;2022-12-29T10:30:12;9.40;99.90
17599;DHT22;8918;52.092;5.232;2022-12-29T10:32:52;9.40;99.90
17599;DHT22;8918;52.092;5.232;2022-12-29T10:35:41;9.40;99.90
17599;DHT22;8918;52.092;5.232;2022-12-29T10:38:38;9.30;99.90
17599;DHT22;8918;52.092;5.232;2022-12-29T10:41:18;9.40;99.90
17599;DHT22;8918;52.092;5.232;2022-12-29T10:43:51;9.40;99.90
17599;DHT22;8918;52.092;5.232;2022-12-29T10:46:27;9.50;99.90
17599;DHT22;8918;52.092;5.232;2022-12-29T10:48:53;9.50;99.90
17599;DHT22;8918;52.092;5.232;2022-12-29T10:51:29;9.60;99.90
17599;DHT22;8918;52.092;5.232;2022-12-29T10:54:20;9.50;99.90
17599;DHT22;8918;52.092;5.232;2022-12-29T10:56:53;9.60;99.90
17599;DHT22;8918;52.092;5.232;2022-12-29T10:59:25;9.50;99.90
17599;DHT22;8918;52.092;5.232;2022-12-29T11:04:59;9.60;99.90
17599;DHT22;8918;52.092;5.232;2022-12-29T11:07:28;9.60;99.90
17599;DHT22;8918;52.092;5.232;2022-12-29T11:09:55;9.70;99.90
17599;DHT22;8918;52.092;5.232;2022-12-29T11:12:40;9.70;99.90
17599;DHT22;8918;52.092;5.232;2022-12-29T11:17:47;9.90;99.90
17599;DHT22;8918;52.092;5.232;2022-12-29T11:20:33;10.00;99.90
17599;DHT22;8918;52.092;5.232;2022-12-29T11:22:59;10.20;99.90
17599;DHT22;8918;52.092;5.232;2022-12-29T11:25:25;10.50;99.90
17599;DHT22;8918;52.092;5.232;2022-12-29T11:28:14;10.60;99.90
17599;DHT22;8918;52.092;5.232;2022-12-29T11:30:40;10.60;99.90
17599;DHT22;8918;52.092;5.232;2022-12-29T11:33:06;10.40;99.90
17599;DHT22;8918;52.092;5.232;2022-12-29T11:35:43;10.30;99.90
17599;DHT22;8918;52.092;5.232;2022-12-29T11:38:20;10.10;99.90
17599;DHT22;8918;52.092;5.232;2022-12-29T11:40:48;10.00;99.90
17599;DHT22;8918;52.092;5.232;2022-12-29T11:43:30;10.10;99.90
17599;DHT22;8918;52.092;5.232;2022-12-29T11:45:59;10.20;99.90
17599;DHT22;8918;52.092;5.232;2022-12-29T11:48:29;10.10;99.90
17599;DHT22;8918;52.092;5.232;2022-12-29T11:50:58;10.10;99.90
17599;DHT22;8918;52.092;5.232;2022-12-29T11:53:33;10.10;99.90
17599;DHT22;8918;52.092;5.232;2022-12-29T11:56:05;10.20;99.90
17599;DHT22;8918;52.092;5.232;2022-12-29T11:58:35;10.20;99.90
17599;DHT22;8918;52.092;5.232;2022-12-29T12:01:33;10.10;99.90
17599;DHT22;8918;52.092;5.232;2022-12-29T12:04:13;10.10;99.90
17599;DHT22;8918;52.092;5.232;2022-12-29T12:07:05;10.10;99.90
17599;DHT22;8918;52.092;5.232;2022-12-29T12:10:15;9.90;99.90
17599;DHT22;8918;52.092;5.232;2022-12-29T12:13:29;9.70;99.90
17599;DHT22;8918;52.092;5.232;2022-12-29T12:16:06;9.60;99.90
17599;DHT22;8918;52.092;5.232;2022-12-29T12:18:48;9.50;99.90
17599;DHT22;8918;52.092;5.232;2022-12-29T12:21:38;9.60;99.90
17599;DHT22;8918;52.092;5.232;2022-12-29T12:27:01;9.70;99.90
17599;DHT22;8918;52.092;5.232;2022-12-29T12:35:00;9.80;99.90
17599;DHT22;8918;52.092;5.232;2022-12-29T12:40:34;9.80;99.90
17599;DHT22;8918;52.092;5.232;2022-12-29T12:52:01;10.20;99.90
17599;DHT22;8918;52.092;5.232;2022-12-29T12:54:47;10.20;99.90
17599;DHT22;8918;52.092;5.232;2022-12-29T12:57:31;10.40;99.90
17599;DHT22;8918;52.092;5.232;2022-12-29T13:02:40;10.80;99.90
17599;DHT22;8918;52.092;5.232;2022-12-29T13:16:38;10.50;99.90
17599;DHT22;8918;52.092;5.232;2022-12-29T13:19:40;10.50;99.90
17599;DHT22;8918;52.092;5.232;2022-12-29T13:22:34;10.40;99.90
17599;DHT22;8918;52.092;5.232;2022-12-29T13:25:08;10.40;99.90
17599;DHT22;8918;52.092;5.232;2022-12-29T13:27:42;10.40;99.90
17599;DHT22;8918;52.092;5.232;2022-12-29T13:30:10;10.40;99.90
17599;DHT22;8918;52.092;5.232;2022-12-29T13:33:02;10.30;99.90
17599;DHT22;8918;52.092;5.232;2022-12-29T13:35:41;10.30;99.90
17599;DHT22;8918;52.092;5.232;2022-12-29T13:40:50;10.20;99.90
17599;DHT22;8918;52.092;5.232;2022-12-29T13:43:20;10.30;99.90
17599;DHT22;8918;52.092;5.232;2022-12-29T13:45:55;10.30;99.90
17599;DHT22;8918;52.092;5.232;2022-12-29T13:48:40;10.30;99.90
17599;DHT22;8918;52.092;5.232;2022-12-29T13:51:09;10.30;99.90
17599;DHT22;8918;52.092;5.232;2022-12-29T13:56:21;10.30;99.90
17599;DHT22;8918;52.092;5.232;2022-12-29T13:59:11;10.20;99.90
17599;DHT22;8918;52.092;5.232;2022-12-29T14:01:59;10.20;99.90
17599;DHT22;8918;52.092;5.232;2022-12-29T14:04:29;10.10;99.90
17599;DHT22;8918;52.092;5.232;2022-12-29T14:07:12;9.90;99.90
17599;DHT22;8918;52.092;5.232;2022-12-29T14:09:52;9.80;99.90
17599;DHT22;8918;52.092;5.232;2022-12-29T14:12:39;9.60;99.90
17599;DHT22;8918;52.092;5.232;2022-12-29T14:15:15;9.50;99.90
17599;DHT22;8918;52.092;5.232;2022-12-29T14:17:44;9.40;99.90
17599;DHT22;8918;52.092;5.232;2022-12-29T14:20:24;9.30;99.90
17599;DHT22;8918;52.092;5.232;2022-12-29T14:26:00;9.30;99.90
17599;DHT22;8918;52.092;5.232;2022-12-29T14:33:34;9.20;99.90
17599;DHT22;8918;52.092;5.232;2022-12-29T14:36:21;9.10;99.90
17599;DHT22;8918;52.092;5.232;2022-12-29T14:38:49;9.00;99.90
17599;DHT22;8918;52.092;5.232;2022-12-29T14:41:23;9.00;99.90
17599;DHT22;8918;52.092;5.232;2022-12-29T14:43:58;9.00;99.90
17599;DHT22;8918;52.092;5.232;2022-12-29T14:46:25;9.00;99.90
17599;DHT22;8918;52.092;5.232;2022-12-29T14:48:56;9.10;99.90
17599;DHT22;8918;52.092;5.232;2022-12-29T14:51:32;9.00;99.90
17599;DHT22;8918;52.092;5.232;2022-12-29T14:55:03;9.10;99.90
17599;DHT22;8918;52.092;5.232;2022-12-29T14:57:21;9.10;99.90
17599;DHT22;8918;52.092;5.232;2022-12-29T14:59:48;9.00;99.90
17599;DHT22;8918;52.092;5.232;2022-12-29T15:02:21;9.00;99.90
17599;DHT22;8918;52.092;5.232;2022-12-29T15:04:47;9.00;99.90
17599;DHT22;8918;52.092;5.232;2022-12-29T15:07:14;9.00;99.90
17599;DHT22;8918;52.092;5.232;2022-12-29T15:09:43;9.10;99.90
17599;DHT22;8918;52.092;5.232;2022-12-29T15:14:53;9.20;99.90
17599;DHT22;8918;52.092;5.232;2022-12-29T15:17:28;9.20;99.90
17599;DHT22;8918;52.092;5.232;2022-12-29T15:19:55;9.20;99.90
17599;DHT22;8918;52.092;5.232;2022-12-29T15:22:21;9.30;99.90
17599;DHT22;8918;52.092;5.232;2022-12-29T15:24:50;9.30;99.90
17599;DHT22;8918;52.092;5.232;2022-12-29T15:27:21;9.40;99.90
17599;DHT22;8918;52.092;5.232;2022-12-29T15:29:47;9.30;99.90
17599;DHT22;8918;52.092;5.232;2022-12-29T15:34:44;9.40;99.90
17599;DHT22;8918;52.092;5.232;2022-12-29T15:37:24;9.40;99.90
17599;DHT22;8918;52.092;5.232;2022-12-29T15:39:50;9.40;99.90
17599;DHT22;8918;52.092;5.232;2022-12-29T15:44:51;9.40;99.90
17599;DHT22;8918;52.092;5.232;2022-12-29T15:47:19;9.40;99.90
17599;DHT22;8918;52.092;5.232;2022-12-29T15:49:50;9.40;99.90
17599;DHT22;8918;52.092;5.232;2022-12-29T15:52:20;9.40;99.90
17599;DHT22;8918;52.092;5.232;2022-12-29T15:54:50;9.40;99.90
17599;DHT22;8918;52.092;5.232;2022-12-29T15:57:26;9.40;99.90
17599;DHT22;8918;52.092;5.232;2022-12-29T15:59:52;9.40;99.90
17599;DHT22;8918;52.092;5.232;2022-12-29T16:02:20;9.40;99.90
17599;DHT22;8918;52.092;5.232;2022-12-29T16:04:48;9.40;99.90
17599;DHT22;8918;52.092;5.232;2022-12-29T16:07:31;9.40;99.90
17599;DHT22;8918;52.092;5.232;2022-12-29T16:10:00;9.30;99.90
17599;DHT22;8918;52.092;5.232;2022-12-29T16:12:36;9.30;99.90
17599;DHT22;8918;52.092;5.232;2022-12-29T16:15:07;9.30;99.90
17599;DHT22;8918;52.092;5.232;2022-12-29T16:17:50;9.30;99.90
17599;DHT22;8918;52.092;5.232;2022-12-29T16:20:21;9.30;99.90
17599;DHT22;8918;52.092;5.232;2022-12-29T16:22:57;9.30;99.90
17599;DHT22;8918;52.092;5.232;2022-12-29T16:25:32;9.30;99.90
17599;DHT22;8918;52.092;5.232;2022-12-29T16:28:00;9.30;99.90
17599;DHT22;8918;52.092;5.232;2022-12-29T16:30:29;9.30;99.90
17599;DHT22;8918;52.092;5.232;2022-12-29T16:32:58;9.20;99.90
17599;DHT22;8918;52.092;5.232;2022-12-29T16:35:44;9.20;99.90
17599;DHT22;8918;52.092;5.232;2022-12-29T16:38:16;9.20;99.90
17599;DHT22;8918;52.092;5.232;2022-12-29T16:41:01;9.10;99.90
17599;DHT22;8918;52.092;5.232;2022-12-29T16:48:26;8.90;99.90
17599;DHT22;8918;52.092;5.232;2022-12-29T16:51:04;8.90;99.90
17599;DHT22;8918;52.092;5.232;2022-12-29T16:53:38;8.80;99.90
17599;DHT22;8918;52.092;5.232;2022-12-29T16:56:23;8.70;99.90
17599;DHT22;8918;52.092;5.232;2022-12-29T16:59:09;8.70;99.90
17599;DHT22;8918;52.092;5.232;2022-12-29T17:01:43;8.70;99.90
17599;DHT22;8918;52.092;5.232;2022-12-29T17:04:11;8.60;99.90
17599;DHT22;8918;52.092;5.232;2022-12-29T17:06:37;8.60;99.90
17599;DHT22;8918;52.092;5.232;2022-12-29T17:11:41;8.60;99.90
17599;DHT22;8918;52.092;5.232;2022-12-29T17:14:32;8.60;99.90
17599;DHT22;8918;52.092;5.232;2022-12-29T17:16:58;8.50;99.90
17599;DHT22;8918;52.092;5.232;2022-12-29T17:19:30;8.50;99.90
17599;DHT22;8918;52.092;5.232;2022-12-29T17:21:56;8.50;99.90
17599;DHT22;8918;52.092;5.232;2022-12-29T17:24:22;8.50;99.90
17599;DHT22;8918;52.092;5.232;2022-12-29T17:26:50;8.40;99.90
17599;DHT22;8918;52.092;5.232;2022-12-29T17:29:31;8.50;99.90
17599;DHT22;8918;52.092;5.232;2022-12-29T17:31:58;8.40;99.90
17599;DHT22;8918;52.092;5.232;2022-12-29T17:34:24;8.40;99.90
17599;DHT22;8918;52.092;5.232;2022-12-29T17:36:50;8.40;99.90
17599;DHT22;8918;52.092;5.232;2022-12-29T17:39:16;8.40;99.90
17599;DHT22;8918;52.092;5.232;2022-12-29T17:41:41;8.40;99.90
17599;DHT22;8918;52.092;5.232;2022-12-29T17:44:17;8.30;99.90
17599;DHT22;8918;52.092;5.232;2022-12-29T17:46:44;8.30;99.90
17599;DHT22;8918;52.092;5.232;2022-12-29T17:49:16;8.30;99.90
17599;DHT22;8918;52.092;5.232;2022-12-29T17:51:43;8.30;99.90
17599;DHT22;8918;52.092;5.232;2022-12-29T17:54:24;8.30;99.90
17599;DHT22;8918;52.092;5.232;2022-12-29T17:56:50;8.20;99.90
17599;DHT22;8918;52.092;5.232;2022-12-29T17:59:17;8.20;99.90
17599;DHT22;8918;52.092;5.232;2022-12-29T18:01:44;8.20;99.90
17599;DHT22;8918;52.092;5.232;2022-12-29T18:04:15;8.20;99.90
17599;DHT22;8918;52.092;5.232;2022-12-29T18:06:42;8.20;99.90
17599;DHT22;8918;52.092;5.232;2022-12-29T18:09:08;8.20;99.90
17599;DHT22;8918;52.092;5.232;2022-12-29T18:11:37;8.20;99.90
17599;DHT22;8918;52.092;5.232;2022-12-29T18:14:02;8.20;99.90
17599;DHT22;8918;52.092;5.232;2022-12-29T18:16:28;8.10;99.90